createdAt,value
2023-03-20T00:00:38.654Z,100698.16
2023-03-20T00:03:27.973Z,100709.69
2023-03-20T00:05:56.751Z,100709.69
2023-03-20T00:08:29.744Z,100706.91
2023-03-20T00:10:58.560Z,100715.91
2023-03-20T00:13:29.420Z,100714.97
2023-03-20T00:15:58.482Z,100721.56
2023-03-20T00:18:29.277Z,100724.06
2023-03-20T00:20:57.814Z,100718.00
2023-03-20T00:23:25.787Z,100714.44
2023-03-20T00:25:57.453Z,100713.56
2023-03-20T00:28:44.029Z,100714.31
2023-03-20T00:31:35.418Z,100710.09
2023-03-20T00:34:19.487Z,100717.06
2023-03-20T00:36:48.915Z,100720.66
2023-03-20T00:39:18.319Z,100726.69
2023-03-20T00:41:58.254Z,100725.63
2023-03-20T00:44:45.175Z,100716.78
2023-03-20T00:47:20.944Z,100716.78
2023-03-20T00:49:52.349Z,100728.34
2023-03-20T00:52:22.192Z,100711.78
2023-03-20T00:54:53.926Z,100716.84
2023-03-20T00:57:34.928Z,100718.50
2023-03-20T01:00:09.233Z,100719.53
2023-03-20T01:02:37.598Z,100723.16
2023-03-20T01:05:08.087Z,100720.50
2023-03-20T01:07:36.865Z,100720.50
2023-03-20T01:10:05.976Z,100715.31
2023-03-20T01:12:33.990Z,100713.50
2023-03-20T01:15:02.133Z,100717.91
2023-03-20T01:17:32.367Z,100720.59
2023-03-20T01:20:00.728Z,100719.72
2023-03-20T01:22:28.964Z,100709.22
2023-03-20T01:24:57.242Z,100720.78
2023-03-20T01:27:25.679Z,100708.53
2023-03-20T01:29:54.276Z,100717.34
2023-03-20T01:32:23.246Z,100713.16
2023-03-20T01:34:53.410Z,100723.75
2023-03-20T01:37:27.981Z,100726.44
2023-03-20T01:40:02.967Z,100734.53
2023-03-20T01:42:37.360Z,100727.53
2023-03-20T01:45:24.132Z,100731.84
2023-03-20T01:47:52.867Z,100731.16
2023-03-20T01:50:30.168Z,100726.66
2023-03-20T01:53:25.785Z,100737.38
2023-03-20T01:56:01.516Z,100733.09
2023-03-20T01:58:44.795Z,100733.84
2023-03-20T02:01:16.064Z,100725.28
2023-03-20T02:03:50.509Z,100732.97
2023-03-20T02:06:47.500Z,100741.22
2023-03-20T02:09:19.348Z,100745.66
2023-03-20T02:11:49.032Z,100741.34
2023-03-20T02:14:21.744Z,100747.53
2023-03-20T02:17:08.986Z,100734.50
2023-03-20T02:20:15.210Z,100752.09
2023-03-20T02:23:29.805Z,100750.34
2023-03-20T02:26:50.916Z,100740.75
2023-03-20T02:30:06.946Z,100734.63
2023-03-20T02:33:14.376Z,100734.81
2023-03-20T02:36:09.205Z,100733.81
2023-03-20T02:39:15.799Z,100746.19
2023-03-20T02:42:11.967Z,100743.56
2023-03-20T02:45:04.536Z,100747.03
2023-03-20T02:48:08.458Z,100742.72
2023-03-20T02:50:58.815Z,100750.56
2023-03-20T02:54:15.386Z,100747.91
2023-03-20T02:56:58.383Z,100742.63
2023-03-20T02:59:59.563Z,100740.91
2023-03-20T03:03:06.540Z,100757.03
2023-03-20T03:06:15.160Z,100751.69
2023-03-20T03:08:49.409Z,100754.38
2023-03-20T03:11:17.610Z,100745.41
2023-03-20T03:13:54.418Z,100744.38
2023-03-20T03:16:36.940Z,100748.06
2023-03-20T03:19:23.346Z,100755.06
2023-03-20T03:21:51.795Z,100748.09
2023-03-20T03:24:40.902Z,100759.59
2023-03-20T03:27:23.520Z,100751.69
2023-03-20T03:29:59.777Z,100768.75
2023-03-20T03:32:39.980Z,100768.78
2023-03-20T03:35:16.348Z,100768.75
2023-03-20T03:37:54.645Z,100773.22
2023-03-20T03:40:44.649Z,100763.50
2023-03-20T03:43:56.861Z,100770.03
2023-03-20T03:46:52.508Z,100754.97
2023-03-20T03:49:35.849Z,100757.56
2023-03-20T03:52:10.462Z,100756.72
2023-03-20T03:55:11.493Z,100754.97
2023-03-20T03:58:21.541Z,100744.44
2023-03-20T04:00:53.095Z,100747.22
2023-03-20T04:03:40.501Z,100758.69
2023-03-20T04:06:12.925Z,100758.75
2023-03-20T04:08:41.941Z,100752.63
2023-03-20T04:11:20.836Z,100762.38
2023-03-20T04:13:51.931Z,100763.47
2023-03-20T04:16:22.363Z,100754.13
2023-03-20T04:18:51.437Z,100759.59
2023-03-20T04:21:19.932Z,100774.69
2023-03-20T04:23:47.748Z,100771.31
2023-03-20T04:26:15.804Z,100778.31
2023-03-20T04:28:43.746Z,100786.22
2023-03-20T04:31:39.594Z,100789.13
2023-03-20T04:34:30.497Z,100791.84
2023-03-20T04:37:05.479Z,100805.88
2023-03-20T04:39:46.519Z,100817.38
2023-03-20T04:42:15.680Z,100804.81
2023-03-20T04:44:43.464Z,100802.88
2023-03-20T04:47:11.302Z,100809.97
2023-03-20T04:49:42.932Z,100794.81
2023-03-20T04:52:10.966Z,100790.22
2023-03-20T04:54:43.565Z,100783.03
2023-03-20T04:57:12.372Z,100777.69
2023-03-20T04:59:40.696Z,100774.34
2023-03-20T05:02:09.042Z,100779.53
2023-03-20T05:04:39.913Z,100792.88
2023-03-20T05:07:07.957Z,100781.66
2023-03-20T05:09:44.130Z,100783.38
2023-03-20T05:12:11.975Z,100785.34
2023-03-20T05:14:54.812Z,100800.31
2023-03-20T05:17:41.054Z,100804.31
2023-03-20T05:20:27.581Z,100800.75
2023-03-20T05:23:33.640Z,100806.13
2023-03-20T05:26:27.434Z,100807.81
2023-03-20T05:29:24.454Z,100800.75
2023-03-20T05:32:15.774Z,100805.25
2023-03-20T05:35:10.453Z,100789.41
2023-03-20T05:37:54.795Z,100808.69
2023-03-20T05:40:58.503Z,100813.09
2023-03-20T05:43:43.537Z,100815.06
2023-03-20T05:46:30.347Z,100818.44
2023-03-20T05:49:09.589Z,100829.81
2023-03-20T05:52:03.691Z,100828.84
2023-03-20T05:54:39.638Z,100827.91
2023-03-20T05:57:19.324Z,100824.31
2023-03-20T05:59:55.270Z,100816.22
2023-03-20T06:02:47.135Z,100811.75
2023-03-20T06:05:35.905Z,100811.56
2023-03-20T06:08:05.581Z,100807.88
2023-03-20T06:10:33.688Z,100812.16
2023-03-20T06:13:01.590Z,100813.91
2023-03-20T06:15:30.661Z,100809.31
2023-03-20T06:18:07.637Z,100803.91
2023-03-20T06:20:35.628Z,100821.41
2023-03-20T06:23:06.150Z,100816.84
2023-03-20T06:25:34.249Z,100817.44
2023-03-20T06:28:02.672Z,100826.25
2023-03-20T06:30:33.511Z,100833.38
2023-03-20T06:33:01.745Z,100845.72
2023-03-20T06:35:38.561Z,100850.25
2023-03-20T06:38:06.715Z,100859.94
2023-03-20T06:40:36.591Z,100844.91
2023-03-20T06:43:04.781Z,100859.16
2023-03-20T06:45:44.984Z,100858.53
2023-03-20T06:48:22.115Z,100861.22
2023-03-20T06:50:51.711Z,100857.69
2023-03-20T06:53:21.849Z,100858.63
2023-03-20T06:55:58.957Z,100869.31
2023-03-20T06:58:27.077Z,100872.09
2023-03-20T07:00:55.836Z,100869.41
2023-03-20T07:03:23.624Z,100879.19
2023-03-20T07:05:52.245Z,100877.25
2023-03-20T07:08:22.709Z,100872.78
2023-03-20T07:10:52.220Z,100873.97
2023-03-20T07:13:20.741Z,100891.56
2023-03-20T07:16:03.414Z,100886.38
2023-03-20T07:18:37.524Z,100890.09
2023-03-20T07:21:07.890Z,100883.81
2023-03-20T07:23:40.210Z,100886.44
2023-03-20T07:26:08.453Z,100887.94
2023-03-20T07:28:36.631Z,100882.56
2023-03-20T07:31:32.552Z,100884.13
2023-03-20T07:34:14.273Z,100881.31
2023-03-20T07:36:46.521Z,100876.03
2023-03-20T07:39:18.814Z,100873.38
2023-03-20T07:41:59.467Z,100869.13
2023-03-20T07:44:42.499Z,100874.41
2023-03-20T07:47:11.828Z,100872.69
2023-03-20T07:49:41.364Z,100875.28
2023-03-20T07:52:11.367Z,100878.78
2023-03-20T07:54:39.156Z,100867.97
2023-03-20T07:57:08.546Z,100868.72
2023-03-20T07:59:38.488Z,100872.19
2023-03-20T08:02:06.599Z,100880.72
2023-03-20T08:04:34.562Z,100867.53
2023-03-20T08:07:05.069Z,100875.38
2023-03-20T08:09:33.262Z,100872.00
2023-03-20T08:12:01.650Z,100873.69
2023-03-20T08:14:29.449Z,100878.09
2023-03-20T08:17:13.304Z,100874.34
2023-03-20T08:19:43.730Z,100877.50
2023-03-20T08:22:13.297Z,100879.94
2023-03-20T08:24:41.264Z,100893.84
2023-03-20T08:27:09.264Z,100893.75
2023-03-20T08:29:37.832Z,100895.44
2023-03-20T08:32:10.516Z,100897.09
2023-03-20T08:34:38.257Z,100889.91
2023-03-20T08:37:07.850Z,100894.13
2023-03-20T08:39:37.805Z,100894.81
2023-03-20T08:42:07.204Z,100891.19
2023-03-20T08:44:34.913Z,100903.34
2023-03-20T08:47:03.493Z,100907.00
2023-03-20T08:49:34.263Z,100910.50
2023-03-20T08:52:02.232Z,100910.09
2023-03-20T08:54:30.641Z,100913.25
2023-03-20T08:56:58.653Z,100911.13
2023-03-20T08:59:28.170Z,100911.47
2023-03-20T09:02:00.640Z,100912.88
2023-03-20T09:04:28.511Z,100916.22
2023-03-20T09:06:56.421Z,100902.97
2023-03-20T09:09:30.120Z,100914.06
2023-03-20T09:12:00.535Z,100920.19
2023-03-20T09:14:29.236Z,100921.91
2023-03-20T09:16:57.738Z,100921.91
2023-03-20T09:19:25.561Z,100927.69
2023-03-20T09:22:01.066Z,100933.75
2023-03-20T09:24:29.280Z,100934.78
2023-03-20T09:27:01.225Z,100942.81
2023-03-20T09:29:31.270Z,100949.25
2023-03-20T09:32:00.267Z,100947.50
2023-03-20T09:34:35.167Z,100953.56
2023-03-20T09:37:05.568Z,100951.66
2023-03-20T09:39:36.385Z,100936.72
2023-03-20T09:42:24.854Z,100952.50
2023-03-20T09:45:15.763Z,100945.78
2023-03-20T09:48:05.320Z,100959.00
2023-03-20T09:50:45.325Z,100940.81
2023-03-20T09:53:38.112Z,100968.75
2023-03-20T09:56:15.775Z,100947.69
2023-03-20T09:59:05.464Z,100964.72
2023-03-20T10:02:34.835Z,100962.81
2023-03-20T10:05:06.974Z,100962.72
2023-03-20T10:07:35.170Z,100950.97
2023-03-20T10:10:15.331Z,100952.47
2023-03-20T10:13:26.875Z,100933.81
2023-03-20T10:16:42.811Z,100950.28
2023-03-20T10:19:35.335Z,100957.19
2023-03-20T10:22:19.318Z,100939.03
2023-03-20T10:24:59.448Z,100925.75
2023-03-20T10:27:42.718Z,100938.44
2023-03-20T10:31:03.319Z,100953.53
2023-03-20T10:33:52.405Z,100954.47
2023-03-20T10:36:58.935Z,100948.97
2023-03-20T10:40:05.420Z,100949.84
2023-03-20T10:42:43.947Z,100926.72
2023-03-20T10:45:41.754Z,100935.69
2023-03-20T10:48:51.313Z,100917.13
2023-03-20T10:51:26.115Z,100932.50
2023-03-20T10:54:02.816Z,100902.41
2023-03-20T10:56:47.445Z,100918.00
2023-03-20T10:59:38.878Z,100901.47
2023-03-20T11:02:17.297Z,100920.66
2023-03-20T11:04:50.903Z,100909.34
2023-03-20T11:07:36.263Z,100927.56
2023-03-20T11:10:05.941Z,100927.34
2023-03-20T11:12:42.564Z,100922.53
2023-03-20T11:15:25.055Z,100922.31
2023-03-20T11:18:06.447Z,100903.47
2023-03-20T11:20:48.189Z,100907.25
2023-03-20T11:23:26.702Z,100911.09
2023-03-20T11:26:02.651Z,100912.34
2023-03-20T11:28:49.494Z,100898.06
2023-03-20T11:31:43.084Z,100897.03
2023-03-20T11:34:30.440Z,100884.25
2023-03-20T11:37:10.198Z,100910.41
2023-03-20T11:39:40.328Z,100903.94
2023-03-20T11:42:26.218Z,100890.19
2023-03-20T11:45:06.789Z,100886.31
2023-03-20T11:47:36.227Z,100882.84
2023-03-20T11:50:08.759Z,100871.38
2023-03-20T11:52:41.285Z,100888.84
2023-03-20T11:55:36.337Z,100884.75
2023-03-20T11:58:10.089Z,100884.50
2023-03-20T12:00:43.137Z,100869.50
2023-03-20T12:03:55.890Z,100885.22
2023-03-20T12:06:37.145Z,100877.25
2023-03-20T12:09:55.032Z,100866.19
2023-03-20T12:13:02.046Z,100872.38
2023-03-20T12:15:38.536Z,100865.50
2023-03-20T12:18:39.787Z,100866.78
2023-03-20T12:21:21.109Z,100863.56
2023-03-20T12:24:14.865Z,100864.66
2023-03-20T12:26:57.901Z,100864.91
2023-03-20T12:29:43.182Z,100853.78
2023-03-20T12:32:26.713Z,100857.09
2023-03-20T12:35:17.876Z,100836.25
2023-03-20T12:37:48.579Z,100850.94
2023-03-20T12:40:19.263Z,100849.75
2023-03-20T12:43:29.582Z,100831.47
2023-03-20T12:46:51.876Z,100826.31
2023-03-20T12:49:47.875Z,100818.28
2023-03-20T12:52:46.089Z,100819.66
2023-03-20T12:55:44.147Z,100822.09
2023-03-20T12:58:54.245Z,100829.03
2023-03-20T13:01:40.491Z,100804.59
2023-03-20T13:04:39.204Z,100821.16
2023-03-20T13:07:21.970Z,100809.09
2023-03-20T13:10:14.616Z,100810.97
2023-03-20T13:13:05.665Z,100810.47
2023-03-20T13:16:33.797Z,100799.72
2023-03-20T13:19:26.326Z,100807.44
2023-03-20T13:22:27.851Z,100796.34
2023-03-20T13:25:19.464Z,100798.69
2023-03-20T13:28:33.456Z,100784.91
2023-03-20T13:31:35.014Z,100791.94
2023-03-20T13:34:26.503Z,100785.13
2023-03-20T13:37:36.698Z,100777.91
2023-03-20T13:40:30.341Z,100790.75
2023-03-20T13:43:20.404Z,100788.84
2023-03-20T13:46:27.611Z,100757.78
2023-03-20T13:49:12.279Z,100769.66
2023-03-20T13:51:59.911Z,100773.34
2023-03-20T13:55:17.483Z,100773.88
2023-03-20T13:58:51.796Z,100768.22
2023-03-20T14:01:36.202Z,100766.47
2023-03-20T14:04:05.434Z,100738.31
2023-03-20T14:07:00.635Z,100739.94
2023-03-20T14:09:37.562Z,100751.03
2023-03-20T14:12:14.616Z,100742.19
2023-03-20T14:15:00.835Z,100753.53
2023-03-20T14:17:32.349Z,100751.03
2023-03-20T14:20:26.956Z,100749.97
2023-03-20T14:23:32.934Z,100752.09
2023-03-20T14:26:27.219Z,100741.75
2023-03-20T14:29:15.324Z,100755.91
2023-03-20T14:32:32.799Z,100749.94
2023-03-20T14:35:36.442Z,100751.66
2023-03-20T14:38:52.579Z,100754.34
2023-03-20T14:42:01.192Z,100765.13
2023-03-20T14:45:35.796Z,100758.19
2023-03-20T14:48:46.635Z,100754.78
2023-03-20T14:51:41.634Z,100755.66
2023-03-20T14:54:31.124Z,100746.81
2023-03-20T14:57:56.595Z,100762.53
2023-03-20T15:01:10.622Z,100750.09
2023-03-20T15:03:41.598Z,100738.63
2023-03-20T15:06:13.282Z,100752.97
2023-03-20T15:08:56.778Z,100747.50
2023-03-20T15:11:27.399Z,100746.81
2023-03-20T15:14:20.405Z,100752.69
2023-03-20T15:17:39.790Z,100734.91
2023-03-20T15:20:18.550Z,100745.03
2023-03-20T15:22:58.399Z,100747.63
2023-03-20T15:25:39.993Z,100746.78
2023-03-20T15:28:12.600Z,100750.25
2023-03-20T15:30:41.360Z,100759.97
2023-03-20T15:33:39.523Z,100745.53
2023-03-20T15:36:16.562Z,100756.31
2023-03-20T15:38:51.917Z,100767.16
2023-03-20T15:41:36.790Z,100764.31
2023-03-20T15:44:36.845Z,100759.09
2023-03-20T15:47:20.733Z,100757.47
2023-03-20T15:49:57.262Z,100756.31
2023-03-20T15:52:34.106Z,100763.25
2023-03-20T15:55:10.887Z,100759.69
2023-03-20T15:57:43.873Z,100757.16
2023-03-20T16:00:23.982Z,100751.78
2023-03-20T16:02:53.575Z,100746.09
2023-03-20T16:05:27.720Z,100738.31
2023-03-20T16:07:56.644Z,100739.34
2023-03-20T16:10:36.278Z,100731.38
2023-03-20T16:13:12.947Z,100726.16
2023-03-20T16:15:42.772Z,100729.13
2023-03-20T16:18:15.993Z,100720.19
2023-03-20T16:20:54.930Z,100713.19
2023-03-20T16:23:43.183Z,100718.88
2023-03-20T16:26:24.607Z,100724.47
2023-03-20T16:29:15.579Z,100722.03
2023-03-20T16:32:51.070Z,100730.47
2023-03-20T16:35:25.633Z,100734.34
2023-03-20T16:38:34.162Z,100735.53
2023-03-20T16:41:38.279Z,100734.69
2023-03-20T16:44:23.087Z,100727.13
2023-03-20T16:47:03.632Z,100730.34
2023-03-20T16:49:55.650Z,100723.09
2023-03-20T16:52:30.735Z,100732.34
2023-03-20T16:55:12.851Z,100732.66
2023-03-20T16:58:06.704Z,100730.44
2023-03-20T17:00:57.787Z,100729.63
2023-03-20T17:03:44.621Z,100723.88
2023-03-20T17:06:22.280Z,100727.78
2023-03-20T17:09:04.102Z,100726.28
2023-03-20T17:11:40.992Z,100738.41
2023-03-20T17:14:08.863Z,100743.28
2023-03-20T17:16:38.285Z,100750.53
2023-03-20T17:19:19.147Z,100753.47
2023-03-20T17:21:47.972Z,100747.47
2023-03-20T17:24:17.102Z,100746.94
2023-03-20T17:26:58.356Z,100749.88
2023-03-20T17:29:27.245Z,100762.50
2023-03-20T17:31:54.978Z,100758.94
2023-03-20T17:34:23.145Z,100753.81
2023-03-20T17:36:50.952Z,100766.63
2023-03-20T17:39:20.989Z,100756.88
2023-03-20T17:41:51.358Z,100769.53
2023-03-20T17:44:22.362Z,100769.59
2023-03-20T17:46:58.309Z,100770.63
2023-03-20T17:49:33.727Z,100768.09
2023-03-20T17:52:01.787Z,100769.75
2023-03-20T17:54:29.624Z,100774.31
2023-03-20T17:57:01.845Z,100769.38
2023-03-20T17:59:33.510Z,100770.28
2023-03-20T18:02:03.034Z,100779.28
2023-03-20T18:04:32.075Z,100775.81
2023-03-20T18:07:02.244Z,100783.06
2023-03-20T18:09:30.901Z,100779.09
2023-03-20T18:11:59.669Z,100784.47
2023-03-20T18:14:27.427Z,100781.22
2023-03-20T18:16:58.951Z,100788.28
2023-03-20T18:19:29.147Z,100775.94
2023-03-20T18:21:58.685Z,100784.88
2023-03-20T18:24:28.688Z,100778.03
2023-03-20T18:26:59.348Z,100779.94
2023-03-20T18:29:27.359Z,100778.47
2023-03-20T18:31:55.820Z,100772.53
2023-03-20T18:34:24.154Z,100778.06
2023-03-20T18:36:52.429Z,100764.94
2023-03-20T18:39:24.361Z,100768.66
2023-03-20T18:41:55.185Z,100768.06
2023-03-20T18:44:25.926Z,100769.22
2023-03-20T18:46:54.879Z,100758.72
2023-03-20T18:49:22.783Z,100772.09
2023-03-20T18:51:52.810Z,100774.88
2023-03-20T18:54:21.076Z,100776.91
2023-03-20T18:56:51.979Z,100772.63
2023-03-20T18:59:21.893Z,100775.31
2023-03-20T19:01:51.676Z,100770.81
2023-03-20T19:04:21.670Z,100772.53
2023-03-20T19:06:50.270Z,100773.44
2023-03-20T19:09:18.371Z,100773.28
2023-03-20T19:11:47.030Z,100769.66
2023-03-20T19:14:15.007Z,100774.97
2023-03-20T19:16:42.879Z,100775.91
2023-03-20T19:19:15.333Z,100776.69
2023-03-20T19:21:43.566Z,100771.63
2023-03-20T19:24:12.052Z,100774.22
2023-03-20T19:26:42.642Z,100777.03
2023-03-20T19:29:13.870Z,100776.13
2023-03-20T19:31:41.935Z,100770.03
2023-03-20T19:34:29.511Z,100770.91
2023-03-20T19:36:59.658Z,100763.94
2023-03-20T19:39:28.698Z,100773.66
2023-03-20T19:42:15.261Z,100773.50
2023-03-20T19:44:49.052Z,100769.06
2023-03-20T19:47:17.004Z,100772.53
2023-03-20T19:49:45.347Z,100772.50
2023-03-20T19:52:28.685Z,100767.91
2023-03-20T19:55:03.196Z,100767.19
2023-03-20T19:57:32.299Z,100769.81
2023-03-20T20:02:49.864Z,100769.50
2023-03-20T20:05:37.096Z,100774.56
2023-03-20T20:08:33.364Z,100769.16
2023-03-20T20:10:56.471Z,100761.19
2023-03-20T20:13:29.244Z,100767.19
2023-03-20T20:15:57.991Z,100768.00
2023-03-20T20:18:28.551Z,100765.31
2023-03-20T20:22:02.443Z,100769.81
2023-03-20T20:23:45.997Z,100772.63
2023-03-20T20:26:14.311Z,100775.22
2023-03-20T20:28:44.323Z,100769.09
2023-03-20T20:31:12.185Z,100759.22
2023-03-20T20:33:41.592Z,100753.13
2023-03-20T20:36:57.541Z,100759.38
2023-03-20T20:39:01.627Z,100754.09
2023-03-20T20:41:29.854Z,100760.31
2023-03-20T20:46:47.283Z,100760.63
2023-03-20T20:49:19.743Z,100755.03
2023-03-20T20:51:49.186Z,100767.63
2023-03-20T20:54:18.046Z,100753.34
2023-03-20T20:56:47.114Z,100750.91
2023-03-20T20:59:15.422Z,100751.72
2023-03-20T21:01:43.797Z,100753.56
2023-03-20T21:04:12.004Z,100747.31
2023-03-20T21:07:07.409Z,100747.22
2023-03-20T21:09:31.430Z,100754.47
2023-03-20T21:12:01.217Z,100763.38
2023-03-20T21:14:30.388Z,100764.25
2023-03-20T21:17:02.153Z,100759.88
2023-03-20T21:19:38.898Z,100758.00
2023-03-20T21:22:12.014Z,100760.75
2023-03-20T21:24:45.904Z,100754.53
2023-03-20T21:27:16.389Z,100756.25
2023-03-20T21:29:47.521Z,100751.78
2023-03-20T21:32:17.662Z,100759.75
2023-03-20T21:34:45.928Z,100755.75
2023-03-20T21:38:33.356Z,100763.41
2023-03-20T21:40:08.783Z,100760.91
2023-03-20T21:42:36.896Z,100763.59
2023-03-20T21:46:13.498Z,100765.41
2023-03-20T21:48:33.449Z,100762.94
2023-03-20T21:54:36.101Z,100756.06
2023-03-20T21:56:59.928Z,100752.47
2023-03-20T21:59:48.537Z,100751.56
2023-03-20T22:02:10.592Z,100746.22
2023-03-20T22:05:24.606Z,100738.31
2023-03-20T22:11:10.741Z,100746.22
2023-03-20T22:16:41.124Z,100753.50
2023-03-20T22:19:40.102Z,100754.50
2023-03-20T22:22:12.054Z,100753.66
2023-03-20T22:30:43.472Z,100757.47
2023-03-20T22:36:38.652Z,100752.03
2023-03-20T22:39:34.100Z,100749.31
2023-03-20T22:42:22.269Z,100747.59
2023-03-20T22:47:11.265Z,100748.50
2023-03-20T22:49:39.822Z,100752.84
2023-03-20T22:52:24.292Z,100747.50
2023-03-20T22:54:52.840Z,100753.00
2023-03-20T22:57:26.553Z,100751.25
2023-03-20T23:00:02.951Z,100743.50
2023-03-20T23:02:30.792Z,100742.50
2023-03-20T23:04:58.834Z,100746.97
2023-03-20T23:07:30.088Z,100749.75
2023-03-20T23:09:58.262Z,100745.31
2023-03-20T23:12:26.538Z,100736.44
2023-03-20T23:14:56.432Z,100745.25
2023-03-20T23:17:26.943Z,100739.16
2023-03-20T23:20:08.695Z,100729.47
2023-03-20T23:22:39.281Z,100733.22
2023-03-20T23:25:18.688Z,100734.19
2023-03-20T23:27:51.981Z,100729.03
2023-03-20T23:30:20.768Z,100722.94
2023-03-20T23:32:49.665Z,100735.44
2023-03-20T23:35:18.135Z,100733.72
2023-03-20T23:37:45.909Z,100726.63
2023-03-20T23:40:14.588Z,100723.28
2023-03-20T23:42:42.356Z,100726.75
2023-03-20T23:45:20.076Z,100725.13
2023-03-20T23:47:52.696Z,100720.81
2023-03-20T23:50:42.662Z,100723.47
2023-03-20T23:53:19.921Z,100723.69
2023-03-20T23:55:53.077Z,100716.63
2023-03-20T23:58:26.769Z,100715.97
